Terminal Aerodrome Forecast
Issued by NWS

Home | Current Version | Previous Version | Text Only | Print | Product List | Glossary On
Versions: 1 2 3 4 5 6 7 8 9 10 11 12 13
000
FTUS45 KRIW 260530
TAFWRL
TAF
KWRL 260530Z 2606/2706 VRB06KT P6SM BKN120
     FM262100 02006KT P6SM VCSH BKN100
     FM270300 04006KT P6SM BKN100=

USA.gov is the U.S. government's official web portal to all federal, state and local government web resources and services.